Time;durP1;ratioP1;P1;durP2;ratioP2;P2;SDS_P1;SDS_P2;PMS_P1;PMS_P2;Temp;Humidity;BMP_temperature;BMP_pressure;BME280_temperature;BME280_humidity;BME280_pressure;Samples;Min_cycle;Max_cycle;Signal;HPM_P1;HPM_P2
2024/03/23 00:02:03;;;;;;;27.38;5.50;;;;;;;6.16;100.00;100131.59;5084081;28;20094;-79
2024/03/23 00:04:29;;;;;;;68.32;8.48;;;;;;;6.10;100.00;100135.66;5067247;28;20448;-77
2024/03/23 00:06:56;;;;;;;31.15;6.78;;;;;;;6.00;100.00;100131.41;5068208;28;20042;-77
2024/03/23 00:09:24;;;;;;;32.10;6.30;;;;;;;6.08;100.00;100158.00;5085295;28;20052;-78
2024/03/23 00:11:50;;;;;;;31.30;6.55;;;;;;;6.08;100.00;100152.69;5070328;28;20039;-77
2024/03/23 00:14:17;;;;;;;36.42;5.55;;;;;;;6.02;100.00;100146.19;5071712;28;20069;-77
2024/03/23 00:16:43;;;;;;;29.30;6.90;;;;;;;6.04;100.00;100133.63;5089755;28;20092;-76
2024/03/23 00:19:09;;;;;;;40.38;5.35;;;;;;;5.99;100.00;100140.31;5089238;28;20028;-77
2024/03/23 00:21:38;;;;;;;31.20;5.10;;;;;;;5.99;100.00;100124.41;5064030;28;20098;-77
2024/03/23 00:24:12;;;;;;;40.10;8.25;;;;;;;5.96;100.00;100122.06;5072499;28;20470;-77
2024/03/23 00:26:39;;;;;;;29.65;4.78;;;;;;;5.96;100.00;100132.69;5068356;28;20036;-77
2024/03/23 00:29:06;;;;;;;43.50;8.40;;;;;;;6.02;100.00;100124.16;5070487;28;20048;-76
2024/03/23 00:31:32;;;;;;;36.55;5.40;;;;;;;5.97;100.00;100116.63;5085319;28;20027;-76
2024/03/23 00:33:59;;;;;;;33.78;6.45;;;;;;;5.92;100.00;100106.44;5070397;28;20633;-77
2024/03/23 00:36:25;;;;;;;39.80;6.50;;;;;;;5.93;100.00;100116.06;5062603;28;20037;-77
2024/03/23 00:38:52;;;;;;;34.03;6.45;;;;;;;5.96;100.00;100106.19;5068653;28;20028;-76
2024/03/23 00:41:18;;;;;;;37.47;5.95;;;;;;;5.95;100.00;100099.19;5068479;28;20032;-77
2024/03/23 00:43:45;;;;;;;29.48;6.00;;;;;;;5.91;100.00;100102.13;5088625;28;20127;-77
2024/03/23 00:46:11;;;;;;;48.42;6.93;;;;;;;5.89;100.00;100080.22;5072017;28;20036;-77
2024/03/23 00:48:38;;;;;;;32.65;6.13;;;;;;;5.90;100.00;100092.50;5070016;28;20490;-77
2024/03/23 00:51:04;;;;;;;35.45;6.28;;;;;;;5.84;100.00;100076.38;5072501;28;20406;-77
2024/03/23 00:53:30;;;;;;;32.75;6.50;;;;;;;5.79;100.00;100074.16;5083042;28;20035;-77
2024/03/23 00:55:55;;;;;;;36.67;5.32;;;;;;;5.88;100.00;100080.41;5056854;28;20442;-77
2024/03/23 00:58:20;;;;;;;34.53;6.65;;;;;;;5.84;100.00;100077.19;5067419;28;20032;-77
2024/03/23 01:00:46;;;;;;;29.70;5.47;;;;;;;5.77;100.00;100080.59;5061670;28;20503;-77
2024/03/23 01:03:11;;;;;;;30.87;7.47;;;;;;;5.76;100.00;100077.13;5079486;28;20479;-77
2024/03/23 01:05:37;;;;;;;35.33;5.97;;;;;;;5.68;100.00;100069.06;5052933;28;20036;-76
2024/03/23 01:08:02;;;;;;;39.47;7.30;;;;;;;5.71;100.00;100074.06;5078535;28;20306;-77
2024/03/23 01:10:27;;;;;;;30.42;6.65;;;;;;;5.76;100.00;100081.56;5075382;28;20336;-78
2024/03/23 01:12:53;;;;;;;27.63;5.50;;;;;;;5.67;100.00;100067.41;5066079;28;20024;-78
2024/03/23 01:15:18;;;;;;;45.27;8.10;;;;;;;5.64;100.00;100067.69;5069450;28;20277;-78
2024/03/23 01:17:43;;;;;;;29.73;5.40;;;;;;;5.54;100.00;100064.25;5068777;28;21299;-77
2024/03/23 01:20:09;;;;;;;37.20;7.10;;;;;;;5.61;100.00;100073.28;5086763;28;20265;-77
2024/03/23 01:22:35;;;;;;;41.78;6.45;;;;;;;5.61;100.00;100074.13;5082450;28;20028;-77
2024/03/23 01:25:01;;;;;;;32.13;5.60;;;;;;;5.61;100.00;100074.13;5080720;28;20461;-77
2024/03/23 01:27:26;;;;;;;30.40;6.15;;;;;;;5.58;100.00;100065.63;5085087;28;20085;-77
2024/03/23 01:29:52;;;;;;;36.88;5.72;;;;;;;5.55;100.00;100064.13;5066234;28;20040;-77
2024/03/23 01:32:18;;;;;;;30.85;7.72;;;;;;;5.50;100.00;100042.53;5071702;28;20032;-78
2024/03/23 01:34:44;;;;;;;33.72;5.57;;;;;;;5.52;100.00;100040.56;5071020;28;20421;-77
2024/03/23 01:37:09;;;;;;;38.78;6.57;;;;;;;5.54;100.00;100029.84;5070294;28;20031;-78
2024/03/23 01:39:34;;;;;;;39.53;6.10;;;;;;;5.50;100.00;100013.41;5083447;28;20024;-77
2024/03/23 01:42:00;;;;;;;39.57;7.43;;;;;;;5.48;100.00;100018.03;5071835;28;20831;-77
2024/03/23 01:44:25;;;;;;;35.92;6.63;;;;;;;5.40;100.00;100000.22;5070354;28;20538;-77
2024/03/23 01:46:51;;;;;;;32.33;6.50;;;;;;;5.41;100.00;100001.91;5071043;28;20039;-76
2024/03/23 01:49:17;;;;;;;36.47;6.07;;;;;;;5.49;100.00;100006.44;5079849;28;20073;-77
2024/03/23 01:51:43;;;;;;;36.80;6.05;;;;;;;5.43;100.00;99993.78;5064884;28;20036;-78
2024/03/23 01:54:09;;;;;;;;;;;;;;;5.34;100.00;99970.84;5081652;28;20047;-80
2024/03/23 01:56:37;;;;;;;28.50;6.15;;;;;;;5.35;100.00;99978.66;5065866;28;19959;-78
2024/03/23 01:59:04;;;;;;;31.27;5.95;;;;;;;5.34;100.00;99971.72;5070849;28;20517;-78
2024/03/23 02:01:30;;;;;;;29.00;5.55;;;;;;;5.37;100.00;99971.41;5063356;28;20056;-78
2024/03/23 02:03:55;;;;;;;36.83;5.43;;;;;;;5.39;100.00;99965.97;5059959;28;20024;-77
2024/03/23 02:06:21;;;;;;;33.80;6.65;;;;;;;5.39;100.00;99952.72;5062385;28;20024;-78
2024/03/23 02:08:48;;;;;;;22.80;5.60;;;;;;;5.21;100.00;99928.88;5079044;28;20043;-78
2024/03/23 02:11:14;;;;;;;35.33;6.45;;;;;;;5.32;100.00;99933.97;5080831;28;20031;-78
2024/03/23 02:13:39;;;;;;;43.05;8.05;;;;;;;5.24;100.00;99928.56;5058558;28;20037;-78
2024/03/23 02:16:05;;;;;;;42.03;5.97;;;;;;;5.21;100.00;99913.00;5066232;28;20036;-77
2024/03/23 02:18:30;;;;;;;25.30;4.82;;;;;;;5.24;100.00;99902.09;5086208;28;20051;-78
2024/03/23 02:20:56;;;;;;;30.20;5.43;;;;;;;5.24;100.00;99907.38;5060096;28;20041;-78
2024/03/23 02:23:21;;;;;;;31.30;5.30;;;;;;;5.23;100.00;99903.09;5081068;28;20282;-77
2024/03/23 02:25:47;;;;;;;31.55;6.35;;;;;;;5.21;100.00;99903.22;5087640;28;20046;-78
2024/03/23 02:28:12;;;;;;;28.95;5.53;;;;;;;5.20;100.00;99900.75;5070000;28;20131;-78
2024/03/23 02:30:38;;;;;;;32.40;4.47;;;;;;;5.12;100.00;99876.81;5085624;28;20071;-78
2024/03/23 02:33:04;;;;;;;30.02;4.90;;;;;;;5.04;100.00;99886.34;5086892;28;20044;-78
2024/03/23 02:35:30;;;;;;;27.85;3.78;;;;;;;5.18;100.00;99902.72;5067465;28;20550;-78
2024/03/23 02:37:56;;;;;;;27.90;5.07;;;;;;;5.10;100.00;99884.06;5087096;28;20660;-78
2024/03/23 02:40:23;;;;;;;39.53;6.82;;;;;;;5.15;100.00;99884.47;5081827;28;20435;-77
2024/03/23 02:42:48;;;;;;;32.72;5.93;;;;;;;5.12;100.00;99871.53;5084463;28;20036;-78
2024/03/23 02:45:14;;;;;;;37.72;6.45;;;;;;;5.08;100.00;99866.56;5067626;28;20039;-78
2024/03/23 02:47:39;;;;;;;23.65;3.88;;;;;;;4.95;100.00;99852.84;5070013;28;20064;-78
2024/03/23 02:50:05;;;;;;;33.42;5.05;;;;;;;4.93;100.00;99851.31;5068360;28;20051;-77
2024/03/23 02:52:31;;;;;;;22.48;4.97;;;;;;;4.83;100.00;99846.09;5082060;28;20106;-78
2024/03/23 02:54:56;;;;;;;33.90;6.45;;;;;;;4.78;100.00;99864.22;5071309;28;20091;-78
2024/03/23 02:57:22;;;;;;;26.38;5.85;;;;;;;4.73;100.00;99875.22;5055783;28;20480;-78
2024/03/23 02:59:47;;;;;;;23.42;4.43;;;;;;;4.68;100.00;99863.41;5069716;28;20074;-77
2024/03/23 03:02:13;;;;;;;30.83;5.53;;;;;;;4.59;100.00;99863.31;5062293;28;20075;-78
2024/03/23 03:04:39;;;;;;;;;;;;;;;4.54;100.00;99868.22;5083342;28;20287;-76
2024/03/23 03:07:04;;;;;;;27.55;4.32;;;;;;;4.49;100.00;99857.22;5066310;28;19912;-78
2024/03/23 03:09:30;;;;;;;25.83;4.68;;;;;;;4.35;100.00;99825.97;5082099;28;21009;-78
2024/03/23 03:11:55;;;;;;;26.23;5.55;;;;;;;4.37;100.00;99853.09;5068270;28;20413;-78
2024/03/23 03:14:21;;;;;;;28.90;4.82;;;;;;;4.28;100.00;99854.78;5087975;28;20067;-78
2024/03/23 03:16:46;;;;;;;32.90;5.97;;;;;;;4.27;100.00;99858.41;5061004;28;20086;-77
2024/03/23 03:19:11;;;;;;;23.03;4.80;;;;;;;4.23;100.00;99872.88;5065808;28;20179;-78
2024/03/23 03:21:37;;;;;;;31.65;4.53;;;;;;;4.29;100.00;99905.84;5071516;28;20290;-78
2024/03/23 03:24:03;;;;;;;26.38;5.65;;;;;;;4.32;100.00;99905.56;5073857;28;20032;-78
2024/03/23 03:26:28;;;;;;;28.40;4.60;;;;;;;4.32;100.00;99902.91;5069589;28;20394;-78
2024/03/23 03:28:54;;;;;;;20.13;5.27;;;;;;;4.20;100.00;99892.50;5058735;28;20029;-78
2024/03/23 03:31:20;;;;;;;38.28;6.03;;;;;;;4.31;100.00;99915.28;5062385;28;20369;-78
2024/03/23 03:33:45;;;;;;;34.92;5.53;;;;;;;4.30;100.00;99912.78;5085736;28;20598;-77
2024/03/23 03:36:11;;;;;;;36.73;6.37;;;;;;;4.36;100.00;99920.16;5072407;28;20035;-78
2024/03/23 03:38:37;;;;;;;32.00;5.93;;;;;;;4.33;100.00;99907.22;5082461;28;20265;-78
2024/03/23 03:41:02;;;;;;;24.48;5.45;;;;;;;4.33;100.00;99915.13;5080226;28;20036;-78
2024/03/23 03:43:28;;;;;;;34.38;5.75;;;;;;;4.35;100.00;99924.59;5073855;28;20036;-77
2024/03/23 03:45:54;;;;;;;25.27;5.32;;;;;;;4.44;100.00;99931.66;5064742;28;20111;-78
2024/03/23 03:48:19;;;;;;;;;;;;;;;4.47;100.00;99919.13;5063517;28;20028;-78
2024/03/23 03:50:45;;;;;;;32.90;6.13;;;;;;;4.46;100.00;99909.56;5068055;28;20382;-77
2024/03/23 03:53:11;;;;;;;30.02;5.93;;;;;;;4.45;100.00;99921.94;5084862;28;20040;-78
2024/03/23 03:55:36;;;;;;;23.48;5.78;;;;;;;4.44;100.00;99914.97;5057703;28;20036;-77
2024/03/23 03:58:02;;;;;;;31.90;6.70;;;;;;;4.43;100.00;99910.69;5064437;28;20399;-77
2024/03/23 04:00:27;;;;;;;23.83;5.38;;;;;;;4.45;100.00;99908.72;5081415;28;20074;-77
2024/03/23 04:02:53;;;;;;;33.53;8.02;;;;;;;4.39;100.00;99898.72;5066559;28;20028;-77
2024/03/23 04:05:19;;;;;;;28.43;6.07;;;;;;;4.39;100.00;99902.19;5083098;28;20024;-78
2024/03/23 04:07:45;;;;;;;37.50;6.32;;;;;;;4.42;100.00;99911.63;5062462;28;20102;-78
2024/03/23 04:10:11;;;;;;;32.30;5.45;;;;;;;4.35;100.00;99897.31;5076813;28;20638;-77
2024/03/23 04:12:36;;;;;;;29.13;5.97;;;;;;;4.28;100.00;99905.00;5057374;28;20040;-77
2024/03/23 04:15:04;;;;;;;45.45;6.82;;;;;;;4.25;100.00;99907.94;5060418;28;20031;-78
2024/03/23 04:17:31;;;;;;;36.97;7.80;;;;;;;4.28;100.00;99910.28;5080410;28;20032;-78
2024/03/23 04:19:58;;;;;;;43.00;7.50;;;;;;;4.26;100.00;99912.25;5055370;28;20019;-78
2024/03/23 04:22:26;;;;;;;33.90;6.38;;;;;;;4.22;100.00;99902.94;5083412;28;20091;-77
2024/03/23 04:24:56;;;;;;;32.30;5.82;;;;;;;4.16;100.00;99893.75;5066285;28;20138;-77
2024/03/23 04:27:21;;;;;;;28.25;5.68;;;;;;;4.08;100.00;99892.81;5081804;28;20123;-77
2024/03/23 04:29:48;;;;;;;35.65;6.22;;;;;;;4.07;100.00;99906.97;5059510;28;20152;-77
2024/03/23 04:32:14;;;;;;;35.30;6.32;;;;;;;4.14;100.00;99919.47;5064799;28;20039;-78
2024/03/23 04:34:39;;;;;;;30.63;6.28;;;;;;;4.15;100.00;99915.88;5077419;28;20040;-78
2024/03/23 04:37:05;;;;;;;32.13;6.65;;;;;;;4.18;100.00;99914.75;5072214;28;20040;-77
2024/03/23 04:39:30;;;;;;;36.93;7.03;;;;;;;4.17;100.00;99913.09;5066705;28;20489;-78
2024/03/23 04:41:56;;;;;;;37.10;6.82;;;;;;;4.16;100.00;99912.25;5054626;28;20040;-77
2024/03/23 04:44:21;;;;;;;41.78;6.45;;;;;;;4.08;100.00;99892.81;5069762;28;20439;-78
2024/03/23 04:46:47;;;;;;;28.57;5.97;;;;;;;4.02;100.00;99899.47;5061663;28;20651;-77
2024/03/23 04:49:12;;;;;;;33.25;7.32;;;;;;;4.01;100.00;99893.38;5058108;28;20291;-77
2024/03/23 04:51:38;;;;;;;40.22;8.77;;;;;;;3.92;100.00;99885.47;5070610;28;20028;-77
2024/03/23 04:54:04;;;;;;;36.85;6.13;;;;;;;3.94;100.00;99894.06;5073267;28;20471;-78
2024/03/23 04:56:31;;;;;;;31.67;7.78;;;;;;;3.80;100.00;99885.59;5071499;28;20040;-78
2024/03/23 04:59:00;;;;;;;38.08;7.82;;;;;;;3.82;100.00;99885.47;5071546;28;20031;-78
2024/03/23 05:01:26;;;;;;;35.42;7.43;;;;;;;3.72;100.00;99871.41;5085666;28;20492;-77
2024/03/23 05:03:52;;;;;;;46.47;7.72;;;;;;;3.77;100.00;99885.88;5091758;28;20046;-77
2024/03/23 05:06:18;;;;;;;31.05;6.80;;;;;;;3.79;100.00;99894.50;5068852;28;20051;-78
2024/03/23 05:08:45;;;;;;;29.67;5.85;;;;;;;3.72;100.00;99882.84;5062833;28;20029;-78
2024/03/23 05:11:11;;;;;;;45.35;8.75;;;;;;;3.63;100.00;99878.41;5064063;28;20456;-78
2024/03/23 05:13:36;;;;;;;39.03;7.15;;;;;;;3.63;100.00;99878.41;5061822;28;20051;-77
2024/03/23 05:16:02;;;;;;;37.58;6.35;;;;;;;3.61;100.00;99882.97;5068722;28;20050;-77
2024/03/23 05:18:28;;;;;;;44.20;7.82;;;;;;;3.62;100.00;99902.28;5066631;28;20054;-78
2024/03/23 05:20:57;;;;;;;47.38;7.38;;;;;;;3.68;100.00;99922.84;5082376;28;20024;-77
2024/03/23 05:23:24;;;;;;;37.97;7.50;;;;;;;3.77;100.00;99941.34;5096550;22;20044;-78
2024/03/23 05:25:49;;;;;;;;;;;;;;;3.81;100.00;99947.97;5089257;28;20053;-78
2024/03/23 05:28:14;;;;;;;35.63;7.78;;;;;;;3.90;100.00;99943.69;5078239;28;20364;-79
2024/03/23 05:30:40;;;;;;;36.47;8.33;;;;;;;3.86;100.00;99933.53;5073378;28;20020;-78
2024/03/23 05:33:06;;;;;;;38.88;9.00;;;;;;;3.83;100.00;99941.75;5067303;28;20409;-76
2024/03/23 05:35:31;;;;;;;32.22;8.13;;;;;;;3.90;100.00;99948.13;5037850;28;20037;-79
2024/03/23 05:37:58;;;;;;;33.70;7.30;;;;;;;4.01;100.00;99950.66;5061090;28;20399;-78
2024/03/23 05:40:26;;;;;;;35.53;7.07;;;;;;;4.06;100.00;99956.34;5045152;28;20025;-78
2024/03/23 05:42:52;;;;;;;48.03;6.97;;;;;;;4.01;100.00;99940.09;5056060;28;20025;-79
2024/03/23 05:45:19;;;;;;;41.17;8.75;;;;;;;4.13;100.00;99951.34;5045358;28;20044;-78
2024/03/23 05:47:44;;;;;;;32.47;8.07;;;;;;;4.19;100.00;99942.81;5055710;28;20036;-79
2024/03/23 05:50:12;;;;;;;37.65;8.07;;;;;;;4.21;100.00;99941.75;5062474;28;20020;-78
2024/03/23 05:52:38;;;;;;;48.22;7.47;;;;;;;4.29;100.00;99930.47;5043351;28;20043;-76
2024/03/23 05:55:05;;;;;;;41.78;8.25;;;;;;;4.26;100.00;99924.59;5062059;28;20026;-77
2024/03/23 05:57:30;;;;;;;42.30;7.15;;;;;;;4.21;100.00;99931.16;5061528;28;20028;-77
2024/03/23 05:59:56;;;;;;;34.03;6.47;;;;;;;4.40;100.00;99934.72;5042004;28;20020;-77
2024/03/23 06:02:22;;;;;;;32.97;7.03;;;;;;;4.43;100.00;99940.56;5044075;28;20125;-77
2024/03/23 06:04:48;;;;;;;28.70;6.75;;;;;;;4.35;100.00;99913.19;5060635;28;20024;-77
2024/03/23 06:07:13;;;;;;;26.50;6.03;;;;;;;4.55;100.00;99922.75;5060660;28;20033;-77
2024/03/23 06:09:42;;;;;;;37.92;7.88;;;;;;;4.74;100.00;99913.06;5041493;28;20025;-77
2024/03/23 06:12:08;;;;;;;37.55;7.90;;;;;;;4.68;100.00;99911.00;5043278;28;20024;-77
2024/03/23 06:14:34;;;;;;;38.35;7.25;;;;;;;4.68;100.00;99906.53;5057813;28;20063;-78
2024/03/23 06:17:00;;;;;;;25.73;7.72;;;;;;;4.88;100.00;99915.25;5051068;28;20135;-77
2024/03/23 06:19:27;;;;;;;43.10;8.93;;;;;;;4.92;100.00;99913.97;5058731;28;20854;-77
2024/03/23 06:21:55;;;;;;;40.35;7.82;;;;;;;4.90;100.00;99900.06;5058360;28;20037;-77
2024/03/23 06:24:27;;;;;;;46.42;8.93;;;;;;;4.90;100.00;99897.41;5040302;28;20763;-76
2024/03/23 06:26:52;;;;;;;38.05;7.35;;;;;;;5.04;100.00;99896.09;5040225;28;20124;-77
2024/03/23 06:29:17;;;;;;;37.77;7.83;;;;;;;5.00;100.00;99887.59;5063079;28;20455;-77
2024/03/23 06:31:43;;;;;;;39.37;7.23;;;;;;;5.13;100.00;99897.84;5066472;28;20317;-77
2024/03/23 06:34:08;;;;;;;40.10;8.45;;;;;;;5.21;100.00;99899.75;5040161;28;20040;-77
2024/03/23 06:36:34;;;;;;;33.37;6.47;;;;;;;5.30;100.00;99896.22;5056938;28;20127;-77
2024/03/23 06:38:59;;;;;;;33.25;7.53;;;;;;;5.26;100.00;99889.56;5049793;28;20282;-76
2024/03/23 06:41:26;;;;;;;37.23;6.93;;;;;;;5.25;100.00;99882.59;5055685;28;20037;-76
2024/03/23 06:43:51;;;;;;;39.42;7.47;;;;;;;5.31;100.00;99882.00;5050329;28;20037;-76
2024/03/23 06:46:18;;;;;;;31.77;6.80;;;;;;;5.29;100.00;99874.22;5043968;28;20069;-77
2024/03/23 06:48:45;;;;;;;34.60;6.97;;;;;;;5.39;100.00;99874.16;5045631;28;20078;-76
2024/03/23 06:51:10;;;;;;;30.77;6.35;;;;;;;5.44;100.00;99866.56;5050920;28;20033;-76
2024/03/23 06:53:35;;;;;;;33.37;6.20;;;;;;;5.56;100.00;99853.94;5053109;28;20029;-77
2024/03/23 06:56:01;;;;;;;42.17;7.60;;;;;;;5.47;100.00;99831.84;5062495;28;20283;-77
2024/03/23 06:58:26;;;;;;;28.30;7.43;;;;;;;5.34;100.00;99817.31;5058553;28;20040;-76
2024/03/23 07:00:52;;;;;;;41.67;8.95;;;;;;;5.41;100.00;99836.94;5038896;28;20314;-77
2024/03/23 07:03:17;;;;;;;29.42;7.32;;;;;;;5.58;100.00;99840.56;5053321;28;20028;-77
2024/03/23 07:05:42;;;;;;;26.45;6.90;;;;;;;5.75;100.00;99845.00;5055688;28;20045;-77
2024/03/23 07:08:08;;;;;;;43.35;7.97;;;;;;;5.65;100.00;99817.78;5046092;28;20054;-76
2024/03/23 07:10:35;;;;;;;38.15;8.65;;;;;;;5.73;100.00;99825.78;5062401;28;20062;-76
2024/03/23 07:13:00;;;;;;;30.75;8.25;;;;;;;5.77;100.00;99829.78;5037589;28;20027;-77
2024/03/23 07:15:26;;;;;;;32.17;7.22;;;;;;;5.80;100.00;99818.88;5049065;28;20033;-77
2024/03/23 07:17:51;;;;;;;34.13;6.53;;;;;;;5.80;100.00;99812.75;5056887;28;20507;-77
2024/03/23 07:20:17;;;;;;;29.17;7.03;;;;;;;5.88;100.00;99800.41;5053425;28;20285;-78
2024/03/23 07:22:42;;;;;;;39.78;7.47;;;;;;;5.93;100.00;99798.13;5028803;28;20290;-77
2024/03/23 07:25:08;;;;;;;30.93;6.97;;;;;;;5.99;100.00;99785.25;5066374;28;20386;-76
2024/03/23 07:27:33;;;;;;;30.85;7.47;;;;;;;6.01;100.00;99778.00;5061271;28;20310;-76
2024/03/23 07:30:00;;;;;;;29.52;7.28;;;;;;;5.91;100.00;99763.00;5053261;28;20048;-77
2024/03/23 07:32:26;;;;;;;31.75;7.10;;;;;;;6.16;100.00;99779.09;5057953;28;20479;-77
2024/03/23 07:34:52;;;;;;;30.92;6.55;;;;;;;6.38;100.00;99783.00;5042061;28;20013;-77
2024/03/23 07:37:17;;;;;;;27.17;8.05;;;;;;;6.08;100.00;99737.44;5058609;28;20614;-76
2024/03/23 07:39:43;;;;;;;31.33;8.25;;;;;;;6.53;100.00;99769.94;5032909;28;20041;-76
2024/03/23 07:42:08;;;;;;;34.47;8.55;;;;;;;6.72;100.00;99743.19;5057699;28;20032;-76
2024/03/23 07:44:34;;;;;;;33.27;6.77;;;;;;;6.81;100.00;99711.34;5057552;28;20040;-75
2024/03/23 07:47:03;;;;;;;27.95;6.72;;;;;;;6.96;100.00;99691.97;5047953;28;20270;-76
2024/03/23 07:49:28;;;;;;;26.08;7.20;;;;;;;6.97;100.00;99669.72;5057949;28;20032;-77
2024/03/23 07:51:54;;;;;;;27.10;7.55;;;;;;;6.43;100.00;99612.81;5069641;28;20469;-76
2024/03/23 07:54:19;;;;;;;30.07;7.47;;;;;;;6.71;100.00;99675.19;5056315;28;20032;-76
2024/03/23 07:56:45;;;;;;;31.65;7.57;;;;;;;6.56;100.00;99671.53;5056177;28;21239;-76
2024/03/23 07:59:11;;;;;;;30.42;8.38;;;;;;;6.74;100.00;99698.75;5061104;28;20067;-76
2024/03/23 08:01:36;;;;;;;48.35;8.68;;;;;;;6.60;100.00;99675.50;5042194;28;20048;-76
2024/03/23 08:04:01;;;;;;;31.73;7.53;;;;;;;6.60;100.00;99658.75;5065135;28;20078;-78
2024/03/23 08:06:27;;;;;;;34.25;8.60;;;;;;;6.75;100.00;99676.53;5056518;28;20107;-77
2024/03/23 08:09:01;;;;;;;29.98;7.93;;;;;;;6.85;100.00;99699.41;5065047;28;20124;-76
2024/03/23 08:11:27;;;;;;;29.73;8.02;;;;;;;6.88;100.00;99675.19;5060569;28;20040;-77
2024/03/23 08:13:53;;;;;;;30.83;7.93;;;;;;;6.80;100.00;99652.16;5040728;28;20036;-77
2024/03/23 08:16:19;;;;;;;28.45;8.00;;;;;;;6.68;100.00;99629.59;5033218;28;20491;-77
2024/03/23 08:18:44;;;;;;;36.92;8.00;;;;;;;6.67;100.00;99625.28;5053986;28;20122;-77
2024/03/23 08:21:10;;;;;;;30.33;8.02;;;;;;;6.60;100.00;99603.88;5040383;28;20036;-77
2024/03/23 08:23:39;;;;;;;31.83;7.40;;;;;;;6.93;100.00;99663.13;5037477;28;20059;-77
2024/03/23 08:26:11;;;;;;;42.58;8.15;;;;;;;6.72;100.00;99597.28;5035822;28;20182;-76
2024/03/23 08:28:37;;;;;;;28.33;8.73;;;;;;;7.02;100.00;99629.44;5033540;28;20037;-78
2024/03/23 08:31:14;;;;;;;40.00;7.57;;;;;;;7.16;100.00;99594.28;5047272;28;20025;-77
2024/03/23 08:33:40;;;;;;;26.42;8.02;;;;;;;7.20;100.00;99554.94;5042765;28;20176;-77
2024/03/23 08:36:07;;;;;;;29.40;8.07;;;;;;;7.68;100.00;99560.22;5044075;28;20131;-77
2024/03/23 08:38:33;;;;;;;24.92;6.80;;;;;;;8.19;100.00;99552.66;5050616;28;20041;-76
2024/03/23 08:41:08;;;;;;;37.38;9.25;;;;;;;8.58;100.00;99495.88;5054251;28;20047;-76
2024/03/23 08:43:41;;;;;;;24.77;8.10;;;;;;;9.05;100.00;99462.81;5049852;28;20033;-76
2024/03/23 08:46:08;;;;;;;26.65;5.97;;;;;;;8.42;100.00;99233.53;5048406;28;20504;-77
2024/03/23 08:48:45;;;;;;;21.52;6.80;;;;;;;8.27;100.00;99236.19;5043780;28;20032;-77
2024/03/23 08:51:12;;;;;;;23.63;6.97;;;;;;;9.07;100.00;99263.78;5028154;28;20981;-75
2024/03/23 08:53:38;;;;;;;23.60;6.47;;;;;;;10.30;100.00;99193.19;5047775;28;20021;-76
2024/03/23 08:56:05;;;;;;;24.60;6.43;;;;;;;10.26;100.00;98868.34;5050993;28;20036;-76
2024/03/23 08:58:32;;;;;;;25.48;5.90;;;;;;;10.80;100.00;98901.16;5054398;28;20143;-77
2024/03/23 09:01:04;;;;;;;27.63;6.32;;;;;;;10.77;100.00;98793.75;5032684;28;20036;-78
2024/03/23 09:03:29;;;;;;;27.88;8.00;;;;;;;10.95;100.00;98605.34;5040738;28;20090;-78
2024/03/23 09:05:55;;;;;;;24.20;5.23;;;;;;;10.40;100.00;98442.41;5048302;28;20953;-76
2024/03/23 09:08:21;;;;;;;26.55;4.68;;;;;;;10.97;100.00;98582.75;5030812;28;20034;-77
2024/03/23 09:10:47;;;;;;;24.25;5.22;;;;;;;11.82;100.00;98474.38;5057556;28;20039;-77
2024/03/23 09:13:12;;;;;;;17.80;5.15;;;;;;;12.34;100.00;98428.38;5052322;28;20028;-77
2024/03/23 09:15:46;;;;;;;18.43;4.97;;;;;;;12.86;100.00;98310.72;5059144;28;20025;-78
2024/03/23 09:18:12;;;;;;;18.55;3.97;;;;;;;13.51;100.00;98200.50;5026295;28;20079;-76
2024/03/23 09:20:37;;;;;;;18.50;4.67;;;;;;;13.33;100.00;97929.28;5039972;28;20048;-75
2024/03/23 09:23:03;;;;;;;18.67;5.23;;;;;;;13.63;100.00;98084.34;5058773;28;20279;-76
2024/03/23 09:25:28;;;;;;;23.50;5.13;;;;;;;13.82;100.00;97889.91;5038454;28;20025;-76
2024/03/23 09:27:53;;;;;;;19.77;4.33;;;;;;;14.09;100.00;97653.00;5044636;28;20051;-76
2024/03/23 09:30:19;;;;;;;16.43;3.67;;;;;;;12.50;100.00;97236.13;5043057;28;20034;-75
2024/03/23 09:32:45;;;;;;;27.20;4.78;;;;;;;11.62;100.00;97648.88;5032285;28;20040;-75
2024/03/23 09:35:11;;;;;;;16.27;3.90;;;;;;;11.93;100.00;97933.53;5026912;28;20149;-76
2024/03/23 09:37:39;;;;;;;16.42;4.40;;;;;;;12.01;100.00;97871.66;5029229;28;20060;-75
2024/03/23 09:40:11;;;;;;;44.45;5.10;;;;;;;11.61;100.00;97930.50;5042367;28;20108;-76
2024/03/23 09:42:37;;;;;;;18.92;3.97;;;;;;;10.98;100.00;97769.31;5042660;28;20426;-75
2024/03/23 09:45:06;;;;;;;14.02;3.15;;;;;;;9.90;100.00;97723.53;5040941;28;20106;-76
2024/03/23 09:47:33;;;;;;;8.63;2.05;;;;;;;8.83;100.00;97685.28;5041597;28;20036;-76
2024/03/23 09:50:00;;;;;;;15.48;3.08;;;;;;;8.18;100.00;97909.06;5046135;28;20094;-75
2024/03/23 09:52:25;;;;;;;9.25;2.22;;;;;;;7.38;100.00;98269.75;5023062;28;20017;-75
2024/03/23 09:54:51;;;;;;;7.32;1.55;;;;;;;6.73;100.00;98442.53;5062203;28;20040;-76
2024/03/23 09:57:16;;;;;;;13.03;3.27;;;;;;;7.07;100.00;98716.88;5047662;28;20048;-75
2024/03/23 09:59:41;;;;;;;6.43;2.10;;;;;;;7.24;100.00;98631.69;5059071;28;20016;-75
2024/03/23 10:02:07;;;;;;;8.23;1.10;;;;;;;8.88;100.00;98999.06;5026993;28;20515;-76
2024/03/23 10:04:40;;;;;;;4.00;1.45;;;;;;;10.03;100.00;98788.78;5037372;28;20310;-77
2024/03/23 10:07:18;;;;;;;7.22;1.60;;;;;;;11.02;100.00;98712.09;5057779;28;20036;-76
2024/03/23 10:09:43;;;;;;;9.43;1.92;;;;;;;12.11;100.00;98507.53;5031033;28;20060;-75
2024/03/23 10:12:14;;;;;;;13.60;2.67;;;;;;;11.04;100.00;97535.31;5038136;28;20552;-76
2024/03/23 10:14:40;;;;;;;11.40;2.00;;;;;;;11.59;100.00;97980.72;5050547;28;20033;-76
2024/03/23 10:17:17;;;;;;;7.95;2.08;;;;;;;12.27;100.00;98168.19;5037869;28;20048;-77
2024/03/23 10:19:49;;;;;;;11.70;2.63;;;;;;;12.53;100.00;97742.16;5033037;28;20039;-75
2024/03/23 10:22:17;;;;;;;17.25;3.15;;;;;;;13.08;100.00;97804.66;5053957;28;20467;-75
2024/03/23 10:24:43;;;;;;;10.55;2.35;;;;;;;13.58;99.00;97826.91;5024013;28;20036;-76
2024/03/23 10:27:09;;;;;;;13.30;2.73;;;;;;;12.55;95.80;97410.91;5043139;28;20029;-75
2024/03/23 10:29:34;;;;;;;14.53;5.07;;;;;;;11.22;97.50;97316.09;5033535;28;20305;-76
2024/03/23 10:32:10;;;;;;;16.43;3.37;;;;;;;11.04;100.00;97752.34;5028765;28;20040;-76
2024/03/23 10:34:37;;;;;;;6.63;1.80;;;;;;;9.85;100.00;97848.66;5039044;28;20389;-76
2024/03/23 10:37:03;;;;;;;8.45;2.65;;;;;;;10.76;100.00;98341.06;5037724;28;20021;-75
2024/03/23 10:39:37;;;;;;;;;;;;;;;11.61;100.00;98551.31;5033884;28;20290;-74
2024/03/23 10:42:05;;;;;;;56.20;27.45;;;;;;;12.63;100.00;98595.31;5042883;28;19976;-75
2024/03/23 10:44:31;;;;;;;115.72;49.55;;;;;;;13.52;100.00;98576.59;5044810;28;20835;-76
2024/03/23 10:47:00;;;;;;;16.05;3.95;;;;;;;13.63;100.00;98164.75;5063423;28;20040;-75
2024/03/23 10:49:30;;;;;;;33.05;11.45;;;;;;;13.93;98.78;98074.00;5064831;28;20728;-76
2024/03/23 10:51:57;;;;;;;14.90;3.95;;;;;;;14.43;94.41;97861.97;5034643;28;20032;-78
2024/03/23 10:54:25;;;;;;;27.45;9.55;;;;;;;14.62;92.04;97785.34;5046607;28;20025;-75
2024/03/23 10:56:56;;;;;;;18.90;6.28;;;;;;;15.40;89.25;97768.41;5037883;28;20029;-77
2024/03/23 10:59:22;;;;;;;8.07;2.67;;;;;;;15.37;86.88;97607.66;5023602;28;20025;-76
2024/03/23 11:01:55;;;;;;;10.43;1.90;;;;;;;13.83;83.24;97019.28;5045641;28;20433;-76
2024/03/23 11:04:34;;;;;;;17.80;2.92;;;;;;;12.87;82.44;96882.66;5025867;28;20147;-75
2024/03/23 11:07:01;;;;;;;31.02;10.85;;;;;;;14.03;85.17;97487.75;5045806;28;20510;-77
2024/03/23 11:09:46;;;;;;;19.95;5.25;;;;;;;14.84;80.30;97242.66;5026162;28;20057;-75
2024/03/23 11:12:23;;;;;;;25.17;10.45;;;;;;;16.06;79.33;97470.84;5038358;28;20029;-75
2024/03/23 11:15:00;;;;;;;10.35;2.63;;;;;;;15.09;76.86;97047.53;5046023;28;20035;-77
2024/03/23 11:17:26;;;;;;;6.47;1.67;;;;;;;15.80;75.73;97250.44;5026311;28;20030;-76
2024/03/23 11:19:58;;;;;;;11.27;2.05;;;;;;;16.28;74.44;97261.31;5045905;28;20499;-76
2024/03/23 11:22:43;;;;;;;10.93;2.05;;;;;;;14.15;72.56;96584.34;5044540;28;20348;-76